createdAt,value
2017-11-14T00:05:25.245Z,10.83
2017-11-14T00:11:28.716Z,11.60
2017-11-14T00:17:32.952Z,11.00
2017-11-14T00:23:36.411Z,12.10
2017-11-14T00:29:40.013Z,10.97
2017-11-14T00:35:43.474Z,10.63
2017-11-14T00:41:46.943Z,13.43
2017-11-14T00:47:51.170Z,14.07
2017-11-14T00:53:54.623Z,12.40
2017-11-14T00:59:58.101Z,12.83
2017-11-14T01:06:01.564Z,14.70
2017-11-14T01:12:05.042Z,12.20
2017-11-14T01:18:08.515Z,12.70
2017-11-14T01:24:11.995Z,11.40
2017-11-14T01:30:15.467Z,12.70
2017-11-14T01:36:19.280Z,11.47
2017-11-14T01:42:22.733Z,14.47
2017-11-14T01:48:26.278Z,12.50
2017-11-14T01:54:29.750Z,13.70
2017-11-14T02:00:50.016Z,13.87
2017-11-14T02:06:53.802Z,14.63
2017-11-14T02:12:57.272Z,14.93
2017-11-14T02:19:00.728Z,14.43
2017-11-14T02:25:04.936Z,12.93
2017-11-14T02:31:08.405Z,14.97
2017-11-14T02:37:12.636Z,15.10
2017-11-14T02:43:16.074Z,14.47
2017-11-14T02:49:19.519Z,15.23
2017-11-14T02:55:23.000Z,13.67
2017-11-14T03:01:26.465Z,13.00
2017-11-14T03:07:29.963Z,16.50
2017-11-14T03:13:34.768Z,16.87
2017-11-14T03:19:38.209Z,14.93
2017-11-14T03:25:41.963Z,16.00
2017-11-14T03:31:45.393Z,15.13
2017-11-14T03:37:49.629Z,16.10
2017-11-14T03:43:53.108Z,17.10
2017-11-14T03:49:56.570Z,15.23
2017-11-14T03:56:00.795Z,15.83
2017-11-14T04:02:04.615Z,16.37
2017-11-14T04:08:08.408Z,14.43
2017-11-14T04:14:12.028Z,12.37
2017-11-14T04:20:16.257Z,15.20
2017-11-14T04:26:19.876Z,15.30
2017-11-14T04:32:23.356Z,14.30
2017-11-14T04:38:26.818Z,14.40
2017-11-14T04:44:30.331Z,14.57
2017-11-14T04:50:33.798Z,15.03
2017-11-14T04:56:37.283Z,13.13
2017-11-14T05:02:40.735Z,14.07
2017-11-14T05:08:45.291Z,13.47
2017-11-14T05:14:48.779Z,13.33
2017-11-14T05:20:52.255Z,14.73
2017-11-14T05:26:55.726Z,15.47
2017-11-14T05:32:59.194Z,14.27
2017-11-14T05:39:03.266Z,11.63
2017-11-14T05:45:07.488Z,12.67
2017-11-14T05:51:10.967Z,12.57
2017-11-14T05:57:14.438Z,11.67
2017-11-14T06:03:18.689Z,12.10
2017-11-14T06:09:22.378Z,10.10
2017-11-14T06:15:25.815Z,9.57
2017-11-14T06:21:30.168Z,10.83
2017-11-14T06:27:33.733Z,10.70
2017-11-14T06:33:37.207Z,11.47
2017-11-14T06:39:40.692Z,9.47
2017-11-14T06:45:44.182Z,11.20
2017-11-14T06:51:47.649Z,11.23
2017-11-14T06:57:51.482Z,9.00
2017-11-14T07:03:54.935Z,9.03
2017-11-14T07:09:58.394Z,11.33
2017-11-14T07:16:03.320Z,10.53
2017-11-14T07:22:06.791Z,8.63
2017-11-14T07:28:11.354Z,11.67
2017-11-14T07:34:14.818Z,11.53
2017-11-14T07:40:18.289Z,12.77
2017-11-14T07:46:21.801Z,11.70
2017-11-14T07:52:25.324Z,15.90
2017-11-14T07:58:29.572Z,13.10
2017-11-14T08:04:33.045Z,12.67
2017-11-14T08:10:36.523Z,12.23
2017-11-14T08:16:39.996Z,14.10
2017-11-14T08:22:44.253Z,11.60
2017-11-14T08:28:47.773Z,12.83
2017-11-14T08:34:51.257Z,10.90
2017-11-14T08:40:54.725Z,12.60
2017-11-14T08:46:58.486Z,10.53
2017-11-14T08:53:01.949Z,9.67
2017-11-14T08:59:05.775Z,9.70
2017-11-14T09:05:09.220Z,8.57
2017-11-14T09:11:12.693Z,8.40
2017-11-14T09:17:16.507Z,7.50
2017-11-14T09:23:19.974Z,8.07
2017-11-14T09:29:23.800Z,7.10
2017-11-14T09:35:27.250Z,6.80
2017-11-14T09:41:30.702Z,6.63
2017-11-14T09:47:34.154Z,6.90
2017-11-14T09:53:37.921Z,5.13
2017-11-14T09:59:41.361Z,5.80
2017-11-14T10:05:44.835Z,5.73
2017-11-14T10:11:48.360Z,3.43
2017-11-14T10:17:51.815Z,3.93
2017-11-14T10:23:55.260Z,3.13
2017-11-14T10:29:58.708Z,3.80
2017-11-14T10:36:02.548Z,3.47
2017-11-14T10:42:05.978Z,3.53
2017-11-14T10:48:09.703Z,2.63
2017-11-14T10:54:13.128Z,3.60
2017-11-14T11:00:22.701Z,2.40
2017-11-14T11:06:26.148Z,2.90
2017-11-14T11:12:30.354Z,2.50
2017-11-14T11:18:34.913Z,3.80
2017-11-14T11:24:38.392Z,2.50
2017-11-14T11:30:41.846Z,2.90
2017-11-14T11:36:45.294Z,3.10
2017-11-14T11:42:48.764Z,3.10
2017-11-14T11:48:52.236Z,3.20
2017-11-14T11:54:56.025Z,3.53
2017-11-14T12:00:59.536Z,2.60
2017-11-14T12:07:04.014Z,3.37
2017-11-14T12:13:07.463Z,3.40
2017-11-14T12:19:10.927Z,2.10
2017-11-14T12:25:15.148Z,4.30
2017-11-14T12:31:18.588Z,4.60
2017-11-14T12:37:22.455Z,4.50
2017-11-14T12:43:25.910Z,5.20
2017-11-14T12:49:29.387Z,4.50
2017-11-14T12:55:32.974Z,4.30
2017-11-14T13:01:36.459Z,5.20
2017-11-14T13:07:39.931Z,4.20
2017-11-14T13:13:44.169Z,5.93
2017-11-14T13:19:47.638Z,3.80
2017-11-14T13:25:51.097Z,3.87
2017-11-14T13:31:55.314Z,4.77
2017-11-14T13:37:58.759Z,4.33
2017-11-14T13:44:02.355Z,4.37
2017-11-14T13:50:05.825Z,6.33
2017-11-14T13:56:09.609Z,4.37
2017-11-14T14:02:13.080Z,4.77
2017-11-14T14:08:16.868Z,4.23
2017-11-14T14:14:20.339Z,4.40
2017-11-14T14:20:23.806Z,3.97
2017-11-14T14:26:27.630Z,4.80
2017-11-14T14:32:31.123Z,5.00
2017-11-14T14:38:34.591Z,4.83
2017-11-14T14:44:38.049Z,4.90
2017-11-14T14:50:41.875Z,5.40
2017-11-14T14:56:45.341Z,5.23
2017-11-14T15:02:49.152Z,6.00
2017-11-14T15:08:52.624Z,5.40
2017-11-14T15:14:56.190Z,6.20
2017-11-14T15:20:59.665Z,6.57
2017-11-14T15:27:03.135Z,6.47
2017-11-14T15:33:07.369Z,6.03
2017-11-14T15:39:10.894Z,7.97
2017-11-14T15:45:14.382Z,9.00
2017-11-14T15:51:17.866Z,8.20
2017-11-14T15:57:22.124Z,7.70
2017-11-14T16:03:25.596Z,6.97
2017-11-14T16:09:29.064Z,7.70
2017-11-14T16:15:32.526Z,8.17
2017-11-14T16:21:36.033Z,8.20
2017-11-14T16:27:39.517Z,10.70
2017-11-14T16:33:43.776Z,8.47
2017-11-14T16:39:47.556Z,8.63
2017-11-14T16:45:51.013Z,8.83
2017-11-14T16:51:54.639Z,13.07
2017-11-14T16:57:58.097Z,10.40
2017-11-14T17:04:01.574Z,37.30
2017-11-14T17:10:05.047Z,10.33
2017-11-14T17:16:08.560Z,12.20
2017-11-14T17:22:12.028Z,8.53
2017-11-14T17:28:15.547Z,10.10
2017-11-14T17:34:19.040Z,14.20
2017-11-14T17:40:22.506Z,9.77
2017-11-14T17:46:25.992Z,8.60
2017-11-14T17:52:29.868Z,8.50
2017-11-14T17:58:33.356Z,8.60
2017-11-14T18:04:36.839Z,8.97
2017-11-14T18:10:40.346Z,7.77
2017-11-14T18:16:43.825Z,8.43
2017-11-14T18:22:47.309Z,8.93
2017-11-14T18:28:50.786Z,10.77
2017-11-14T18:34:54.269Z,10.50
2017-11-14T18:40:57.741Z,8.87
2017-11-14T18:47:01.243Z,10.80
2017-11-14T18:53:04.736Z,9.27
2017-11-14T18:59:08.229Z,18.70
2017-11-14T19:05:11.751Z,9.67
2017-11-14T19:11:15.242Z,8.90
2017-11-14T19:17:18.732Z,9.70
2017-11-14T19:23:22.239Z,13.23
2017-11-14T19:29:26.527Z,8.43
2017-11-14T19:35:30.083Z,8.40
2017-11-14T19:41:34.310Z,9.03
2017-11-14T19:47:37.816Z,8.43
2017-11-14T19:53:42.144Z,8.87
2017-11-14T19:59:47.126Z,9.90
2017-11-14T20:05:50.615Z,8.50
2017-11-14T20:11:54.109Z,8.93
2017-11-14T20:17:57.572Z,8.90
2017-11-14T20:24:01.125Z,10.60
2017-11-14T20:30:05.394Z,11.07
2017-11-14T20:36:08.857Z,11.43
2017-11-14T20:42:12.663Z,11.90
2017-11-14T20:48:16.195Z,21.97
2017-11-14T20:54:19.680Z,13.97
2017-11-14T21:00:23.207Z,18.30
2017-11-14T21:06:26.688Z,22.70
2017-11-14T21:12:30.504Z,14.90
2017-11-14T21:18:33.981Z,14.97
2017-11-14T21:24:37.494Z,14.03
2017-11-14T21:30:41.724Z,12.87
2017-11-14T21:36:45.211Z,14.60
2017-11-14T21:42:48.667Z,12.93
2017-11-14T21:48:52.924Z,13.77
2017-11-14T21:54:56.400Z,13.00
2017-11-14T22:00:59.931Z,21.40
2017-11-14T22:07:04.671Z,15.30
2017-11-14T22:13:08.493Z,14.07
2017-11-14T22:19:12.013Z,13.10
2017-11-14T22:25:15.470Z,12.77
2017-11-14T22:31:18.938Z,13.70
2017-11-14T22:37:24.044Z,16.70
2017-11-14T22:43:27.532Z,13.60
2017-11-14T22:49:31.540Z,14.57
2017-11-14T22:55:35.018Z,13.73
2017-11-14T23:01:38.484Z,13.20
2017-11-14T23:07:42.029Z,13.17
2017-11-14T23:13:45.556Z,13.80
2017-11-14T23:19:49.061Z,14.23
2017-11-14T23:25:52.607Z,12.97
2017-11-14T23:31:56.156Z,12.73
2017-11-14T23:38:00.474Z,13.70
2017-11-14T23:44:03.973Z,12.50
2017-11-14T23:50:08.298Z,13.50
2017-11-14T23:56:11.863Z,12.30
